createdAt,value
2023-03-11T00:00:35.786Z,76.30
2023-03-11T00:01:35.157Z,76.36
2023-03-11T00:02:35.051Z,76.47
2023-03-11T00:04:01.596Z,76.60
2023-03-11T00:04:34.498Z,76.56
2023-03-11T00:05:35.107Z,76.42
2023-03-11T00:06:34.618Z,76.16
2023-03-11T00:07:34.806Z,76.15
2023-03-11T00:08:35.118Z,76.11
2023-03-11T00:09:34.700Z,75.88
2023-03-11T00:10:35.310Z,75.96
2023-03-11T00:11:34.123Z,76.11
2023-03-11T00:12:35.447Z,76.14
2023-03-11T00:13:35.597Z,76.11
2023-03-11T00:14:34.694Z,75.93
2023-03-11T00:15:35.347Z,76.02
2023-03-11T00:16:34.870Z,76.02
2023-03-11T00:17:35.087Z,76.07
2023-03-11T00:18:34.876Z,76.13
2023-03-11T00:19:34.622Z,76.23
2023-03-11T00:20:35.311Z,76.09
2023-03-11T00:21:34.912Z,76.04
2023-03-11T00:22:34.831Z,76.00
2023-03-11T00:23:34.658Z,76.04
2023-03-11T00:24:34.650Z,76.12
2023-03-11T00:25:35.753Z,76.15
2023-03-11T00:26:34.935Z,76.05
2023-03-11T00:27:35.539Z,76.03
2023-03-11T00:28:34.892Z,76.27
2023-03-11T00:29:35.358Z,76.33
2023-03-11T00:30:35.506Z,76.37
2023-03-11T00:31:34.697Z,76.52
2023-03-11T00:32:35.246Z,76.55
2023-03-11T00:33:34.431Z,76.55
2023-03-11T00:34:34.840Z,76.44
2023-03-11T00:35:35.523Z,76.58
2023-03-11T00:36:35.038Z,76.58
2023-03-11T00:37:34.415Z,76.49
2023-03-11T00:38:34.803Z,76.57
2023-03-11T00:39:34.768Z,76.70
2023-03-11T00:40:35.316Z,76.75
2023-03-11T00:41:34.930Z,76.89
2023-03-11T00:42:35.176Z,77.03
2023-03-11T00:43:34.499Z,76.97
2023-03-11T00:44:34.183Z,76.97
2023-03-11T00:45:35.602Z,76.85
2023-03-11T00:46:34.531Z,76.66
2023-03-11T00:47:34.731Z,76.63
2023-03-11T00:48:34.884Z,76.49
2023-03-11T00:49:34.607Z,76.43
2023-03-11T00:50:34.881Z,76.31
2023-03-11T00:51:35.242Z,76.28
2023-03-11T00:52:34.868Z,76.21
2023-03-11T00:53:35.433Z,76.15
2023-03-11T00:54:34.052Z,76.18
2023-03-11T00:55:34.916Z,76.13
2023-03-11T00:56:34.842Z,76.08
2023-03-11T00:57:34.718Z,75.94
2023-03-11T00:58:34.560Z,75.87
2023-03-11T00:59:34.952Z,75.73
2023-03-11T01:00:36.699Z,75.65
2023-03-11T01:01:39.835Z,75.48
2023-03-11T01:02:35.200Z,75.42
2023-03-11T01:03:34.783Z,75.44
2023-03-11T01:04:35.148Z,75.35
2023-03-11T01:05:34.972Z,75.30
2023-03-11T01:06:45.197Z,75.41
2023-03-11T01:07:35.247Z,75.42
2023-03-11T01:08:35.305Z,75.23
2023-03-11T01:09:34.866Z,75.31
2023-03-11T01:10:36.225Z,75.39
2023-03-11T01:11:34.966Z,75.40
2023-03-11T01:12:35.360Z,75.45
2023-03-11T01:13:35.396Z,75.39
2023-03-11T01:14:35.472Z,75.33
2023-03-11T01:15:35.016Z,75.39
2023-03-11T01:16:34.927Z,75.48
2023-03-11T01:17:35.174Z,75.41
2023-03-11T01:18:34.666Z,75.30
2023-03-11T01:19:35.048Z,74.91
2023-03-11T01:20:35.209Z,74.83
2023-03-11T01:21:34.994Z,74.76
2023-03-11T01:22:34.449Z,74.70
2023-03-11T01:23:34.892Z,74.68
2023-03-11T01:24:35.149Z,74.64
2023-03-11T01:25:35.465Z,74.41
2023-03-11T01:26:34.816Z,74.50
2023-03-11T01:27:34.760Z,74.58
2023-03-11T01:28:34.893Z,74.57
2023-03-11T01:29:34.813Z,74.54
2023-03-11T01:30:35.281Z,74.62
2023-03-11T01:31:35.206Z,74.65
2023-03-11T01:32:34.484Z,74.59
2023-03-11T01:33:35.335Z,74.45
2023-03-11T01:34:35.099Z,74.36
2023-03-11T01:35:34.768Z,74.41
2023-03-11T01:36:35.647Z,74.51
2023-03-11T01:37:34.818Z,74.36
2023-03-11T01:38:34.597Z,74.28
2023-03-11T01:39:35.238Z,74.14
2023-03-11T01:40:34.645Z,74.02
2023-03-11T01:41:34.755Z,74.06
2023-03-11T01:42:35.256Z,74.08
2023-03-11T01:43:34.759Z,74.12
2023-03-11T01:44:34.775Z,74.06
2023-03-11T01:45:35.924Z,74.02
2023-03-11T01:46:34.817Z,74.16
2023-03-11T01:47:35.038Z,74.17
2023-03-11T01:48:34.812Z,74.16
2023-03-11T01:49:34.674Z,74.10
2023-03-11T01:50:34.867Z,74.03
2023-03-11T01:51:35.303Z,73.86
2023-03-11T01:52:39.992Z,73.76
2023-03-11T01:53:34.612Z,73.53
2023-03-11T01:54:34.896Z,73.53
2023-03-11T01:55:35.287Z,73.48
2023-03-11T01:56:34.552Z,73.37
2023-03-11T01:57:34.676Z,73.46
2023-03-11T01:58:34.907Z,73.59
2023-03-11T01:59:35.269Z,73.39
2023-03-11T02:01:38.063Z,73.32
2023-03-11T02:02:34.861Z,73.45
2023-03-11T02:03:35.340Z,73.33
2023-03-11T02:04:34.772Z,73.26
2023-03-11T02:05:34.830Z,73.27
2023-03-11T02:06:35.360Z,73.26
2023-03-11T02:07:34.671Z,73.21
2023-03-11T02:08:34.934Z,73.24
2023-03-11T02:09:35.022Z,73.31
2023-03-11T02:10:34.827Z,73.26
2023-03-11T02:11:35.378Z,73.15
2023-03-11T02:12:34.906Z,73.10
2023-03-11T02:13:35.217Z,73.14
2023-03-11T02:14:34.982Z,73.27
2023-03-11T02:15:34.932Z,73.50
2023-03-11T02:16:35.517Z,73.68
2023-03-11T02:17:35.308Z,73.84
2023-03-11T02:18:35.165Z,73.82
2023-03-11T02:19:34.754Z,73.71
2023-03-11T02:20:35.572Z,73.77
2023-03-11T02:21:35.246Z,73.89
2023-03-11T02:22:34.885Z,73.93
2023-03-11T02:23:35.134Z,73.95
2023-03-11T02:24:34.120Z,73.93
2023-03-11T02:25:34.858Z,73.98
2023-03-11T02:26:34.100Z,73.95
2023-03-11T02:27:34.279Z,73.89
2023-03-11T02:28:34.281Z,73.91
2023-03-11T02:29:34.505Z,73.82
2023-03-11T02:30:35.189Z,73.95
2023-03-11T02:31:34.356Z,74.03
2023-03-11T02:32:35.174Z,73.98
2023-03-11T02:33:34.513Z,73.76
2023-03-11T02:34:34.293Z,73.84
2023-03-11T02:35:35.031Z,73.75
2023-03-11T02:36:34.696Z,73.79
2023-03-11T02:37:35.304Z,73.89
2023-03-11T02:38:34.043Z,73.89
2023-03-11T02:39:34.114Z,73.69
2023-03-11T02:40:34.588Z,73.67
2023-03-11T02:41:35.049Z,73.87
2023-03-11T02:42:34.730Z,73.98
2023-03-11T02:43:34.959Z,74.01
2023-03-11T02:44:34.366Z,74.06
2023-03-11T02:45:34.930Z,74.15
2023-03-11T02:46:35.088Z,74.21
2023-03-11T02:47:34.610Z,74.17
2023-03-11T02:48:35.220Z,74.14
2023-03-11T02:49:34.496Z,74.16
2023-03-11T02:50:34.895Z,74.21
2023-03-11T02:51:34.995Z,74.12
2023-03-11T02:52:34.650Z,74.05
2023-03-11T02:53:35.122Z,74.08
2023-03-11T02:54:34.151Z,74.17
2023-03-11T02:55:34.510Z,74.13
2023-03-11T02:56:34.877Z,74.23
2023-03-11T02:57:35.267Z,74.27
2023-03-11T02:58:34.792Z,74.21
2023-03-11T02:59:34.434Z,74.23
2023-03-11T03:01:34.803Z,74.21
2023-03-11T03:02:35.150Z,74.27
2023-03-11T03:03:34.603Z,74.27
2023-03-11T03:04:34.820Z,74.23
2023-03-11T03:05:35.204Z,74.20
2023-03-11T03:06:34.348Z,74.23
2023-03-11T03:07:34.332Z,74.20
2023-03-11T03:08:34.660Z,74.18
2023-03-11T03:09:35.412Z,74.21
2023-03-11T03:10:35.563Z,74.21
2023-03-11T03:11:34.875Z,74.19
2023-03-11T03:12:34.857Z,74.27
2023-03-11T03:13:35.561Z,74.28
2023-03-11T03:14:34.404Z,74.28
2023-03-11T03:15:34.693Z,74.29
2023-03-11T03:16:35.789Z,74.38
2023-03-11T03:17:34.872Z,74.39
2023-03-11T03:18:34.804Z,74.37
2023-03-11T03:19:34.744Z,74.35
2023-03-11T03:20:35.097Z,74.41
2023-03-11T03:21:34.746Z,74.42
2023-03-11T03:22:36.047Z,74.41
2023-03-11T03:23:34.088Z,74.50
2023-03-11T03:24:33.820Z,74.53
2023-03-11T03:25:34.642Z,74.56
2023-03-11T03:26:34.705Z,74.67
2023-03-11T03:27:35.236Z,74.83
2023-03-11T03:28:34.523Z,74.83
2023-03-11T03:29:34.306Z,74.80
2023-03-11T03:30:34.933Z,74.84
2023-03-11T03:31:34.966Z,74.88
2023-03-11T03:32:34.477Z,74.84
2023-03-11T03:33:35.019Z,74.83
2023-03-11T03:34:34.765Z,74.80
2023-03-11T03:35:34.802Z,74.78
2023-03-11T03:36:35.278Z,74.84
2023-03-11T03:37:34.375Z,74.88
2023-03-11T03:38:34.563Z,74.88
2023-03-11T03:39:34.322Z,74.76
2023-03-11T03:40:34.659Z,74.78
2023-03-11T03:41:35.127Z,74.77
2023-03-11T03:42:34.514Z,74.76
2023-03-11T03:43:34.780Z,74.76
2023-03-11T03:44:34.642Z,74.76
2023-03-11T03:45:35.128Z,74.80
2023-03-11T03:46:34.847Z,74.88
2023-03-11T03:47:34.902Z,74.90
2023-03-11T03:48:34.940Z,74.84
2023-03-11T03:49:35.143Z,74.93
2023-03-11T03:50:34.337Z,74.91
2023-03-11T03:51:35.058Z,74.82
2023-03-11T03:52:34.655Z,74.85
2023-03-11T03:53:35.431Z,74.81
2023-03-11T03:54:34.293Z,74.79
2023-03-11T03:55:35.513Z,74.86
2023-03-11T03:56:34.635Z,74.96
2023-03-11T03:57:34.259Z,74.98
2023-03-11T03:58:34.353Z,74.95
2023-03-11T03:59:34.198Z,75.05
2023-03-11T04:00:36.347Z,75.14
2023-03-11T04:01:36.026Z,75.11
2023-03-11T04:02:35.125Z,75.08
2023-03-11T04:03:35.124Z,75.08
2023-03-11T04:04:35.303Z,75.02
2023-03-11T04:05:34.681Z,75.01
2023-03-11T04:06:35.496Z,74.99
2023-03-11T04:07:34.908Z,74.98
2023-03-11T04:08:35.093Z,74.98
2023-03-11T04:09:34.952Z,74.99
2023-03-11T04:10:35.403Z,75.01
2023-03-11T04:11:35.683Z,74.96
2023-03-11T04:12:35.150Z,74.93
2023-03-11T04:13:34.844Z,74.94
2023-03-11T04:14:34.881Z,75.00
2023-03-11T04:15:35.351Z,75.01
2023-03-11T04:16:34.994Z,74.98
2023-03-11T04:17:39.949Z,75.05
2023-03-11T04:18:35.546Z,75.07
2023-03-11T04:19:35.138Z,75.02
2023-03-11T04:20:35.005Z,75.03
2023-03-11T04:21:34.493Z,75.08
2023-03-11T04:22:34.811Z,75.08
2023-03-11T04:23:35.162Z,75.09
2023-03-11T04:24:34.604Z,75.13
2023-03-11T04:25:35.717Z,75.22
2023-03-11T04:26:35.785Z,75.23
2023-03-11T04:27:35.462Z,75.24
2023-03-11T04:28:34.925Z,75.18
2023-03-11T04:29:34.871Z,75.16
2023-03-11T04:30:35.253Z,75.12
2023-03-11T04:31:34.352Z,75.16
2023-03-11T04:32:34.718Z,75.22
2023-03-11T04:33:34.858Z,75.24
2023-03-11T04:34:34.708Z,75.19
2023-03-11T04:35:34.780Z,75.19
2023-03-11T04:36:35.165Z,75.20
2023-03-11T04:37:34.340Z,75.31
2023-03-11T04:38:34.532Z,75.34
2023-03-11T04:39:34.896Z,75.37
2023-03-11T04:40:35.614Z,75.37
2023-03-11T04:41:34.728Z,75.34
2023-03-11T04:42:35.051Z,75.48
2023-03-11T04:43:48.565Z,75.61
2023-03-11T04:44:34.965Z,75.75
2023-03-11T04:45:35.591Z,75.77
2023-03-11T04:46:34.926Z,75.78
2023-03-11T04:47:34.370Z,75.72
2023-03-11T04:48:34.467Z,75.73
2023-03-11T04:49:34.653Z,75.77
2023-03-11T04:50:35.322Z,75.84
2023-03-11T04:51:34.951Z,75.87
2023-03-11T04:52:34.494Z,75.89
2023-03-11T04:53:35.172Z,75.85
2023-03-11T04:54:35.036Z,75.80
2023-03-11T04:55:34.876Z,75.78
2023-03-11T04:56:35.683Z,75.82
2023-03-11T04:57:35.170Z,75.88
2023-03-11T04:58:34.896Z,75.88
2023-03-11T04:59:35.575Z,75.94
2023-03-11T05:00:36.432Z,75.96
2023-03-11T05:01:35.594Z,75.98
2023-03-11T05:02:35.431Z,76.01
2023-03-11T05:03:34.972Z,75.95
2023-03-11T05:04:34.677Z,75.87
2023-03-11T05:05:35.059Z,75.80
2023-03-11T05:06:34.503Z,75.67
2023-03-11T05:07:35.414Z,75.56
2023-03-11T05:08:34.899Z,75.62
2023-03-11T05:09:34.812Z,75.68
2023-03-11T05:10:35.952Z,75.59
2023-03-11T05:11:35.225Z,75.51
2023-03-11T05:12:34.608Z,75.56
2023-03-11T05:13:35.031Z,75.52
2023-03-11T05:14:34.463Z,75.52
2023-03-11T05:15:35.549Z,75.52
2023-03-11T05:16:35.480Z,75.61
2023-03-11T05:17:34.577Z,75.73
2023-03-11T05:18:35.418Z,75.77
2023-03-11T05:19:34.741Z,75.86
2023-03-11T05:20:35.324Z,75.93
2023-03-11T05:21:35.129Z,75.97
2023-03-11T05:22:34.937Z,75.98
2023-03-11T05:23:35.120Z,75.95
2023-03-11T05:24:34.917Z,75.98
2023-03-11T05:25:35.901Z,76.04
2023-03-11T05:26:34.895Z,76.07
2023-03-11T05:27:34.932Z,76.08
2023-03-11T05:28:35.433Z,76.12
2023-03-11T05:29:35.116Z,76.21
2023-03-11T05:30:34.893Z,76.36
2023-03-11T05:31:35.281Z,76.39
2023-03-11T05:32:35.150Z,76.27
2023-03-11T05:33:34.693Z,76.28
2023-03-11T05:34:35.263Z,76.42
2023-03-11T05:35:35.222Z,76.44
2023-03-11T05:36:34.848Z,76.41
2023-03-11T05:37:35.201Z,76.34
2023-03-11T05:38:35.054Z,76.44
2023-03-11T05:39:35.199Z,76.55
2023-03-11T05:40:35.239Z,76.67
2023-03-11T05:41:35.151Z,76.80
2023-03-11T05:42:34.873Z,76.66
2023-03-11T05:43:35.486Z,76.54
2023-03-11T05:44:35.055Z,76.48
2023-03-11T05:45:35.001Z,76.50
2023-03-11T05:46:35.630Z,76.50
2023-03-11T05:47:35.273Z,76.55
2023-03-11T05:48:35.473Z,76.52
2023-03-11T05:49:34.842Z,76.45
2023-03-11T05:50:35.088Z,76.48
2023-03-11T05:51:34.796Z,76.45
2023-03-11T05:52:35.864Z,76.35
2023-03-11T05:53:35.562Z,76.32
2023-03-11T05:54:34.619Z,76.27
2023-03-11T05:55:35.300Z,76.29
2023-03-11T05:56:34.740Z,76.30
2023-03-11T05:57:35.452Z,76.19
2023-03-11T05:58:34.719Z,76.16
2023-03-11T05:59:35.432Z,76.15
2023-03-11T06:00:37.017Z,76.08
2023-03-11T06:01:35.283Z,76.06
2023-03-11T06:02:34.517Z,76.03
2023-03-11T06:03:35.039Z,76.02
2023-03-11T06:04:35.107Z,76.06
2023-03-11T06:05:35.397Z,76.04
2023-03-11T06:06:35.053Z,76.13
2023-03-11T06:07:34.751Z,76.11
2023-03-11T06:08:35.233Z,76.12
2023-03-11T06:09:34.598Z,76.07
2023-03-11T06:10:35.700Z,76.07
2023-03-11T06:11:37.232Z,76.13
2023-03-11T06:12:35.200Z,76.12
2023-03-11T06:13:35.884Z,76.16
2023-03-11T06:14:36.422Z,76.20
2023-03-11T06:15:35.565Z,76.19
2023-03-11T06:16:36.113Z,76.00
2023-03-11T06:17:34.976Z,75.89
2023-03-11T06:18:35.341Z,75.85
2023-03-11T06:19:35.017Z,75.81
2023-03-11T06:20:34.756Z,75.70
2023-03-11T06:21:34.986Z,75.73
2023-03-11T06:22:35.008Z,75.72
2023-03-11T06:23:34.671Z,75.69
2023-03-11T06:24:35.206Z,75.60
2023-03-11T06:25:35.439Z,75.52
2023-03-11T06:26:35.536Z,75.61
2023-03-11T06:27:35.785Z,75.53
2023-03-11T06:28:35.662Z,75.62
2023-03-11T06:29:35.059Z,75.70
2023-03-11T06:30:35.433Z,75.73
2023-03-11T06:31:35.497Z,75.71
2023-03-11T06:32:35.840Z,75.76
2023-03-11T06:33:35.862Z,75.70
2023-03-11T06:34:35.666Z,75.73
2023-03-11T06:35:35.300Z,75.87
2023-03-11T06:36:35.568Z,75.78
2023-03-11T06:37:36.253Z,75.71
2023-03-11T06:38:37.365Z,75.67
2023-03-11T06:39:35.439Z,75.63
2023-03-11T06:40:35.084Z,75.68
2023-03-11T06:41:34.747Z,75.75
2023-03-11T06:42:35.225Z,75.67
2023-03-11T06:43:34.189Z,75.62
2023-03-11T06:44:35.365Z,75.70
2023-03-11T06:45:35.346Z,75.66
2023-03-11T06:46:34.758Z,75.62
2023-03-11T06:47:35.117Z,75.68
2023-03-11T06:48:34.945Z,75.82
2023-03-11T06:49:35.872Z,75.76
2023-03-11T06:50:36.359Z,75.77
2023-03-11T06:51:35.571Z,75.80
2023-03-11T06:52:34.935Z,75.72
2023-03-11T06:53:35.740Z,75.80
2023-03-11T06:54:35.100Z,75.91
2023-03-11T06:55:36.393Z,75.92
2023-03-11T06:56:36.053Z,75.97
2023-03-11T06:57:35.562Z,75.93
2023-03-11T06:58:36.259Z,75.87
2023-03-11T06:59:35.183Z,75.84
2023-03-11T07:01:06.677Z,75.84
2023-03-11T07:01:37.914Z,75.73
2023-03-11T07:02:35.636Z,75.72
2023-03-11T07:03:35.848Z,75.82
2023-03-11T07:04:35.481Z,75.85
2023-03-11T07:05:35.411Z,75.90
2023-03-11T07:06:35.806Z,75.95
2023-03-11T07:07:36.207Z,76.04
2023-03-11T07:08:36.211Z,76.05
2023-03-11T07:09:35.652Z,76.06
2023-03-11T07:10:36.919Z,76.04
2023-03-11T07:11:35.746Z,76.05
2023-03-11T07:12:36.953Z,76.10
2023-03-11T07:13:35.750Z,76.11
2023-03-11T07:14:36.873Z,76.09
2023-03-11T07:15:36.372Z,76.07
2023-03-11T07:16:36.145Z,75.97
2023-03-11T07:17:36.020Z,75.92
2023-03-11T07:18:35.917Z,75.94
2023-03-11T07:19:36.308Z,76.01
2023-03-11T07:20:36.101Z,76.03
2023-03-11T07:21:35.778Z,76.06
2023-03-11T07:22:36.326Z,76.22
2023-03-11T07:23:35.703Z,76.30
2023-03-11T07:24:36.341Z,76.40
2023-03-11T07:25:36.070Z,76.57
2023-03-11T07:26:36.426Z,76.48
2023-03-11T07:27:37.177Z,76.40
2023-03-11T07:28:35.642Z,76.43
2023-03-11T07:29:35.778Z,76.38
2023-03-11T07:30:36.820Z,76.42
2023-03-11T07:31:36.529Z,76.41
2023-03-11T07:32:35.864Z,76.17
2023-03-11T07:33:36.183Z,76.03
2023-03-11T07:34:35.371Z,75.81
2023-03-11T07:35:35.766Z,75.78
2023-03-11T07:36:36.095Z,76.01
2023-03-11T07:37:36.008Z,75.86
2023-03-11T07:38:35.299Z,75.58
2023-03-11T07:39:36.142Z,75.68
2023-03-11T07:40:35.659Z,75.62
2023-03-11T07:41:35.873Z,75.70
2023-03-11T07:42:35.699Z,75.64
2023-03-11T07:43:35.091Z,75.72
2023-03-11T07:44:35.392Z,75.63
2023-03-11T07:45:35.660Z,75.47
2023-03-11T07:46:35.533Z,75.42
2023-03-11T07:47:35.809Z,75.43
2023-03-11T07:48:36.005Z,75.27
2023-03-11T07:49:35.157Z,75.29
2023-03-11T07:51:34.936Z,75.20
2023-03-11T07:52:36.426Z,75.32
2023-03-11T07:53:35.775Z,75.39
2023-03-11T07:54:35.757Z,75.50
2023-03-11T07:55:36.297Z,75.55
2023-03-11T07:56:35.288Z,75.33
2023-03-11T07:57:35.193Z,75.04
2023-03-11T07:58:35.308Z,75.08
2023-03-11T07:59:35.090Z,75.15
2023-03-11T08:00:36.548Z,75.06
2023-03-11T08:01:36.331Z,75.05
2023-03-11T08:02:35.665Z,74.94
2023-03-11T08:03:36.782Z,74.62
2023-03-11T08:04:36.048Z,74.52
2023-03-11T08:05:36.531Z,74.46
2023-03-11T08:06:36.324Z,74.41
2023-03-11T08:07:38.946Z,74.37
2023-03-11T08:08:36.405Z,74.44
2023-03-11T08:09:35.424Z,74.39
2023-03-11T08:10:36.531Z,74.47
2023-03-11T08:11:36.817Z,74.44
2023-03-11T08:12:36.664Z,74.30
2023-03-11T08:13:38.611Z,74.25
2023-03-11T08:14:35.970Z,74.26
2023-03-11T08:15:37.070Z,74.16
2023-03-11T08:16:36.283Z,74.04
2023-03-11T08:17:35.742Z,74.31
2023-03-11T08:18:36.555Z,74.51
2023-03-11T08:19:35.931Z,74.50
2023-03-11T08:20:35.977Z,74.39
2023-03-11T08:21:35.211Z,74.18
2023-03-11T08:22:38.071Z,74.04
2023-03-11T08:23:36.708Z,73.84
2023-03-11T08:24:36.897Z,73.84
2023-03-11T08:25:36.498Z,73.72
2023-03-11T08:26:36.189Z,73.71
2023-03-11T08:27:36.061Z,73.38
2023-03-11T08:28:35.761Z,73.31
2023-03-11T08:29:36.226Z,73.20
2023-03-11T08:30:35.971Z,73.52
2023-03-11T08:31:37.318Z,73.12
2023-03-11T08:32:36.840Z,72.44
2023-03-11T08:33:41.515Z,72.23
2023-03-11T08:34:35.761Z,72.22
2023-03-11T08:35:36.656Z,72.23
2023-03-11T08:36:36.746Z,72.42
2023-03-11T08:37:37.980Z,72.54
2023-03-11T08:38:35.894Z,72.58
2023-03-11T08:39:35.830Z,72.44
2023-03-11T08:40:36.429Z,72.57
2023-03-11T08:41:35.901Z,72.67
2023-03-11T08:42:37.228Z,72.67
2023-03-11T08:43:35.912Z,72.67
2023-03-11T08:46:36.074Z,72.73
2023-03-11T08:47:35.557Z,72.61
2023-03-11T08:48:36.092Z,71.98
2023-03-11T08:49:35.332Z,71.51
2023-03-11T08:50:47.440Z,71.44
2023-03-11T08:51:35.613Z,71.53
2023-03-11T08:52:36.023Z,71.39
2023-03-11T08:53:35.905Z,71.01
2023-03-11T08:54:36.138Z,70.79
2023-03-11T08:55:35.922Z,70.83
2023-03-11T08:56:36.803Z,70.96
2023-03-11T08:57:36.445Z,71.05
2023-03-11T08:58:36.542Z,71.10
2023-03-11T08:59:36.260Z,70.88
2023-03-11T09:00:37.535Z,70.72
2023-03-11T09:01:36.672Z,70.61
2023-03-11T09:02:36.845Z,70.66
2023-03-11T09:03:36.133Z,70.38
2023-03-11T09:04:35.306Z,70.30
2023-03-11T09:05:41.266Z,70.32
2023-03-11T09:06:36.017Z,70.51
2023-03-11T09:07:35.568Z,70.41
2023-03-11T09:08:36.126Z,70.12
2023-03-11T09:09:41.125Z,70.15
2023-03-11T09:10:36.227Z,70.33
2023-03-11T09:11:40.389Z,69.79
2023-03-11T09:12:35.555Z,69.70
2023-03-11T09:13:36.380Z,69.42
2023-03-11T09:14:35.526Z,69.26
2023-03-11T09:15:36.858Z,69.11
2023-03-11T09:16:36.841Z,69.08
2023-03-11T09:17:41.811Z,69.03
2023-03-11T09:18:36.715Z,69.27
2023-03-11T09:19:36.133Z,69.17
2023-03-11T09:20:36.125Z,69.29
2023-03-11T09:21:36.355Z,69.29
2023-03-11T09:22:35.884Z,69.47
2023-03-11T09:23:37.069Z,69.45
2023-03-11T09:24:35.385Z,69.65
2023-03-11T09:26:06.050Z,69.64
2023-03-11T09:26:37.444Z,69.27
2023-03-11T09:27:35.858Z,69.36
2023-03-11T09:28:36.458Z,69.34
2023-03-11T09:29:50.062Z,69.34
2023-03-11T09:30:35.237Z,69.01
2023-03-11T09:31:35.617Z,68.84
2023-03-11T09:32:36.473Z,68.47
2023-03-11T09:33:49.834Z,68.67
2023-03-11T09:34:36.335Z,68.80
2023-03-11T09:35:35.679Z,68.73
2023-03-11T09:36:36.237Z,68.53
2023-03-11T09:38:05.840Z,68.56
2023-03-11T09:38:37.569Z,68.52
2023-03-11T09:39:36.312Z,68.70
2023-03-11T09:40:36.171Z,68.90
2023-03-11T09:41:42.395Z,67.87
2023-03-11T09:42:36.032Z,67.94
2023-03-11T09:43:54.885Z,68.06
2023-03-11T09:44:36.564Z,67.76
2023-03-11T09:46:05.801Z,67.71
2023-03-11T09:46:37.243Z,67.43
2023-03-11T09:47:35.705Z,67.63
2023-03-11T09:48:36.848Z,67.54
2023-03-11T09:49:35.967Z,67.50
2023-03-11T09:50:36.886Z,67.11
2023-03-11T09:51:36.202Z,66.83
2023-03-11T09:52:35.850Z,66.50
2023-03-11T09:53:36.513Z,66.61
2023-03-11T09:54:36.192Z,65.76
2023-03-11T09:55:36.214Z,65.37
2023-03-11T09:56:36.391Z,65.26
2023-03-11T09:57:35.724Z,65.34
2023-03-11T09:58:35.889Z,65.69
2023-03-11T09:59:36.705Z,66.12
2023-03-11T10:00:37.731Z,66.27
2023-03-11T10:01:35.755Z,66.13
2023-03-11T10:02:36.654Z,65.73
2023-03-11T10:03:39.671Z,65.37
2023-03-11T10:04:36.059Z,65.38
2023-03-11T10:05:34.860Z,65.63
2023-03-11T10:06:36.466Z,65.69
2023-03-11T10:07:36.668Z,65.59
2023-03-11T10:08:36.244Z,65.58
2023-03-11T10:09:39.169Z,65.53
2023-03-11T10:10:36.805Z,65.27
2023-03-11T10:11:35.572Z,65.49
2023-03-11T10:12:35.816Z,65.82
2023-03-11T10:13:36.266Z,65.19
2023-03-11T10:14:35.665Z,64.94
2023-03-11T10:15:38.364Z,64.93
2023-03-11T10:16:35.929Z,64.73
2023-03-11T10:17:36.075Z,64.92
2023-03-11T10:18:35.854Z,65.17
2023-03-11T10:19:35.589Z,65.05
2023-03-11T10:20:36.268Z,64.97
2023-03-11T10:21:38.932Z,65.09
2023-03-11T10:22:35.757Z,65.19
2023-03-11T10:23:36.371Z,65.51
2023-03-11T10:24:36.118Z,65.48
2023-03-11T10:25:35.472Z,65.65
2023-03-11T10:26:35.725Z,65.62
2023-03-11T10:27:35.462Z,64.86
2023-03-11T10:28:35.909Z,64.69
2023-03-11T10:29:36.290Z,64.47
2023-03-11T10:30:35.943Z,64.51
2023-03-11T10:31:36.335Z,64.13
2023-03-11T10:32:35.713Z,63.54
2023-03-11T10:34:36.307Z,62.58
2023-03-11T10:35:35.894Z,61.98
2023-03-11T10:36:35.908Z,62.09
2023-03-11T10:37:48.255Z,61.93
2023-03-11T10:38:35.550Z,62.09
2023-03-11T10:39:35.901Z,61.29
2023-03-11T10:40:37.600Z,61.39
2023-03-11T10:41:36.291Z,61.15
2023-03-11T10:42:34.549Z,61.15
2023-03-11T10:43:35.985Z,60.89
2023-03-11T10:44:35.337Z,60.74
2023-03-11T10:45:36.053Z,60.86
2023-03-11T10:46:36.144Z,61.43
2023-03-11T10:47:35.611Z,61.09
2023-03-11T10:48:36.340Z,60.56
2023-03-11T10:49:36.149Z,60.72
2023-03-11T10:50:36.881Z,60.98
2023-03-11T10:51:37.456Z,61.06
2023-03-11T10:52:36.587Z,61.36
2023-03-11T10:53:36.441Z,61.38
2023-03-11T10:54:36.367Z,61.50
2023-03-11T10:55:36.244Z,61.01
2023-03-11T10:56:40.903Z,61.05
2023-03-11T10:57:36.328Z,61.34
2023-03-11T10:58:35.824Z,61.61
2023-03-11T10:59:38.065Z,61.61
2023-03-11T11:00:39.258Z,61.17
2023-03-11T11:01:38.400Z,61.31
2023-03-11T11:02:43.653Z,60.68
2023-03-11T11:03:38.198Z,60.47
2023-03-11T11:04:36.890Z,60.74
2023-03-11T11:05:37.547Z,61.05
2023-03-11T11:06:41.709Z,61.5
2023-03-11T11:07:36.847Z,61.04
2023-03-11T11:08:36.728Z,61.01
2023-03-11T11:09:38.299Z,61.05
2023-03-11T11:10:35.924Z,61.22
2023-03-11T11:11:36.592Z,61.51
2023-03-11T11:12:43.938Z,61.20
2023-03-11T11:13:36.743Z,60.00
2023-03-11T11:14:36.237Z,59.79
2023-03-11T11:15:37.029Z,60.03
2023-03-11T11:16:49.862Z,60.61
2023-03-11T11:17:36.763Z,60.40
2023-03-11T11:18:50.290Z,59.33
2023-03-11T11:19:36.005Z,59.24
2023-03-11T11:20:50.269Z,59.58
2023-03-11T11:21:36.154Z,59.02
2023-03-11T11:22:36.652Z,59.38
2023-03-11T11:23:36.569Z,60.16
2023-03-11T11:24:44.132Z,60.32
2023-03-11T11:26:49.960Z,60.88
2023-03-11T11:27:36.037Z,61.21
2023-03-11T11:28:35.884Z,60.82
2023-03-11T11:29:36.311Z,61.43
2023-03-11T11:30:54.354Z,61.43
2023-03-11T11:31:36.182Z,60.99
2023-03-11T11:32:35.864Z,60.74
2023-03-11T11:33:36.428Z,61.13
2023-03-11T11:34:36.824Z,60.41
2023-03-11T11:35:36.232Z,60.18
2023-03-11T11:36:54.126Z,59.93
2023-03-11T11:38:35.709Z,60.54
2023-03-11T11:39:35.487Z,60.86
2023-03-11T11:40:40.999Z,60.55
2023-03-11T11:41:35.036Z,59.91
2023-03-11T11:42:42.790Z,59.91
2023-03-11T11:43:36.303Z,60.54
2023-03-11T11:44:35.775Z,60.64
2023-03-11T11:45:36.267Z,60.63
2023-03-11T11:46:35.149Z,60.27
2023-03-11T11:47:35.520Z,60.03
2023-03-11T11:48:35.896Z,60.22
2023-03-11T11:49:35.934Z,60.38
2023-03-11T11:50:37.317Z,60.69
2023-03-11T11:51:35.977Z,60.65
2023-03-11T11:52:36.675Z,60.04
2023-03-11T11:53:36.260Z,59.63
2023-03-11T11:54:35.957Z,59.78
2023-03-11T11:55:36.813Z,59.79
2023-03-11T11:56:36.122Z,59.70
2023-03-11T11:57:35.746Z,59.48
2023-03-11T11:58:36.096Z,59.25
2023-03-11T11:59:34.903Z,58.95
2023-03-11T12:00:36.462Z,59.54
2023-03-11T12:01:36.793Z,59.93
2023-03-11T12:02:36.731Z,59.78
2023-03-11T12:03:37.343Z,59.53
2023-03-11T12:04:36.057Z,59.60
2023-03-11T12:05:36.925Z,59.60
2023-03-11T12:06:36.274Z,59.55
2023-03-11T12:07:36.288Z,59.77
2023-03-11T12:08:37.225Z,60.15
2023-03-11T12:09:36.433Z,60.08
2023-03-11T12:10:38.081Z,60.50
2023-03-11T12:11:36.242Z,60.76
2023-03-11T12:12:36.047Z,60.50
2023-03-11T12:13:35.773Z,60.60
2023-03-11T12:14:36.381Z,59.75
2023-03-11T12:15:36.090Z,59.29
2023-03-11T12:16:36.082Z,59.13
2023-03-11T12:17:36.110Z,59.33
2023-03-11T12:19:04.523Z,59.22
2023-03-11T12:19:37.355Z,58.94
2023-03-11T12:20:36.825Z,59.08
2023-03-11T12:21:36.597Z,59.13
2023-03-11T12:22:36.292Z,59.31
2023-03-11T12:23:36.301Z,59.21
2023-03-11T12:24:36.228Z,59.08
2023-03-11T12:25:36.929Z,59.10
2023-03-11T12:26:36.473Z,59.38
2023-03-11T12:27:36.629Z,59.73
2023-03-11T12:28:36.433Z,59.86
2023-03-11T12:29:36.351Z,59.87
2023-03-11T12:30:36.441Z,60.09
2023-03-11T12:31:35.995Z,60.37
2023-03-11T12:32:35.436Z,60.45
2023-03-11T12:33:36.305Z,60.15
2023-03-11T12:34:36.957Z,59.91
2023-03-11T12:35:36.659Z,60.14
2023-03-11T12:36:35.993Z,59.95
2023-03-11T12:37:36.223Z,59.59
2023-03-11T12:38:36.283Z,59.03
2023-03-11T12:39:35.725Z,59.09
2023-03-11T12:41:35.928Z,59.87
2023-03-11T12:42:36.744Z,60.06
2023-03-11T12:43:36.902Z,60.02
2023-03-11T12:44:36.929Z,60.47
2023-03-11T12:45:37.344Z,60.50
2023-03-11T12:46:35.731Z,60.22
2023-03-11T12:47:36.776Z,60.25
2023-03-11T12:48:37.404Z,59.79
2023-03-11T12:49:36.356Z,59.76
2023-03-11T12:50:36.756Z,59.56
2023-03-11T12:51:36.830Z,59.41
2023-03-11T12:52:36.573Z,59.15
2023-03-11T12:53:36.539Z,58.91
2023-03-11T12:54:36.264Z,58.95
2023-03-11T12:55:36.423Z,58.54
2023-03-11T12:56:36.323Z,58.29
2023-03-11T12:57:36.640Z,58.70
2023-03-11T12:58:37.421Z,58.76
2023-03-11T12:59:35.712Z,58.93
2023-03-11T13:00:37.305Z,59.02
2023-03-11T13:01:36.969Z,57.83